createdAt,value
2017-10-15T00:01:22.650Z,78.10
2017-10-15T00:03:50.428Z,78.00
2017-10-15T00:06:18.206Z,78.30
2017-10-15T00:08:45.950Z,78.20
2017-10-15T00:11:13.633Z,78.60
2017-10-15T00:13:41.356Z,79.10
2017-10-15T00:16:09.044Z,78.90
2017-10-15T00:18:37.539Z,79.10
2017-10-15T00:21:05.376Z,78.50
2017-10-15T00:23:33.059Z,78.50
2017-10-15T00:26:00.850Z,78.50
2017-10-15T00:28:28.577Z,78.30
2017-10-15T00:30:56.269Z,78.10
2017-10-15T00:33:24.819Z,78.40
2017-10-15T00:35:52.501Z,78.40
2017-10-15T00:38:20.203Z,78.30
2017-10-15T00:40:47.936Z,78.20
2017-10-15T00:43:15.718Z,78.30
2017-10-15T00:45:44.158Z,78.00
2017-10-15T00:48:11.879Z,77.80
2017-10-15T00:50:39.714Z,77.80
2017-10-15T00:53:07.380Z,78.00
2017-10-15T00:55:35.130Z,77.90
2017-10-15T00:58:02.940Z,78.00
2017-10-15T01:00:31.464Z,77.70
2017-10-15T01:02:59.304Z,77.60
2017-10-15T01:05:27.120Z,77.50
2017-10-15T01:07:54.918Z,77.60
2017-10-15T01:10:23.433Z,77.80
2017-10-15T01:12:51.204Z,77.80
2017-10-15T01:15:18.973Z,77.70
2017-10-15T01:17:46.699Z,77.50
2017-10-15T01:20:14.449Z,77.50
2017-10-15T01:22:42.169Z,77.50
2017-10-15T01:25:09.952Z,77.40
2017-10-15T01:27:37.712Z,77.50
2017-10-15T01:30:05.522Z,77.30
2017-10-15T01:32:33.278Z,77.60
2017-10-15T01:35:01.062Z,77.90
2017-10-15T01:37:28.830Z,78.10
2017-10-15T01:39:56.635Z,78.00
2017-10-15T01:42:24.358Z,78.40
2017-10-15T01:44:52.055Z,78.40
2017-10-15T01:47:19.855Z,78.50
2017-10-15T01:49:47.618Z,77.80
2017-10-15T01:52:15.407Z,77.70
2017-10-15T01:54:43.213Z,77.50
2017-10-15T01:57:10.969Z,77.60
2017-10-15T01:59:38.664Z,78.00
2017-10-15T02:02:06.379Z,78.60
2017-10-15T02:04:34.055Z,78.40
2017-10-15T02:07:01.822Z,78.30
2017-10-15T02:09:29.640Z,78.60
2017-10-15T02:11:57.320Z,78.20
2017-10-15T02:14:25.071Z,78.20
2017-10-15T02:16:52.843Z,78.10
2017-10-15T02:19:20.614Z,77.80
2017-10-15T02:21:48.304Z,77.90
2017-10-15T02:24:16.187Z,78.00
2017-10-15T02:26:43.987Z,77.30
2017-10-15T02:29:11.700Z,77.30
2017-10-15T02:31:39.517Z,77.30
2017-10-15T02:34:07.258Z,77.00
2017-10-15T02:36:35.061Z,76.70
2017-10-15T02:43:31.395Z,76.70
2017-10-15T02:45:59.990Z,76.50
2017-10-15T02:48:27.782Z,76.50
2017-10-15T02:50:55.513Z,76.50
2017-10-15T02:53:23.258Z,76.50
2017-10-15T02:55:50.976Z,76.20
2017-10-15T02:58:18.713Z,77.30
2017-10-15T03:00:46.542Z,76.50
2017-10-15T03:03:14.278Z,76.50
2017-10-15T03:05:42.024Z,76.20
2017-10-15T03:08:09.795Z,75.70
2017-10-15T03:10:37.575Z,75.50
2017-10-15T03:13:05.329Z,75.40
2017-10-15T03:15:33.044Z,75.40
2017-10-15T03:18:01.422Z,75.30
2017-10-15T03:20:29.211Z,74.90
2017-10-15T03:22:56.941Z,74.70
2017-10-15T03:25:24.723Z,74.60
2017-10-15T03:27:52.519Z,74.50
2017-10-15T03:30:20.249Z,74.50
2017-10-15T03:32:47.972Z,74.70
2017-10-15T03:35:15.776Z,74.70
2017-10-15T03:37:43.484Z,74.50
2017-10-15T03:40:11.983Z,74.50
2017-10-15T03:42:39.719Z,74.40
2017-10-15T03:45:07.501Z,74.90
2017-10-15T03:47:35.239Z,74.70
2017-10-15T03:50:03.127Z,74.60
2017-10-15T03:52:30.914Z,74.60
2017-10-15T03:54:58.692Z,74.40
2017-10-15T03:57:26.521Z,74.30
2017-10-15T03:59:54.301Z,73.90
2017-10-15T04:02:22.804Z,73.20
2017-10-15T04:04:50.697Z,73.50
2017-10-15T04:07:18.487Z,73.70
2017-10-15T04:09:46.307Z,73.50
2017-10-15T04:12:14.181Z,73.60
2017-10-15T04:14:42.018Z,73.80
2017-10-15T04:17:09.766Z,73.60
2017-10-15T04:19:37.615Z,73.50
2017-10-15T04:22:05.327Z,73.50
2017-10-15T04:24:33.074Z,73.10
2017-10-15T04:27:00.875Z,72.80
2017-10-15T04:29:28.632Z,72.50
2017-10-15T04:31:56.431Z,72.60
2017-10-15T04:34:24.220Z,72.60
2017-10-15T04:36:52.022Z,72.10
2017-10-15T04:39:19.833Z,72.30
2017-10-15T04:41:47.666Z,72.50
2017-10-15T04:44:15.447Z,72.30
2017-10-15T04:46:43.246Z,72.00
2017-10-15T04:49:10.978Z,71.50
2017-10-15T04:51:38.714Z,71.70
2017-10-15T04:54:06.507Z,71.70
2017-10-15T04:56:34.325Z,71.50
2017-10-15T04:59:02.131Z,71.50
2017-10-15T05:01:29.942Z,71.10
2017-10-15T05:03:57.675Z,71.40
2017-10-15T05:06:25.518Z,71.30
2017-10-15T05:08:53.257Z,71.50
2017-10-15T05:11:21.159Z,71.50
2017-10-15T05:13:48.914Z,71.40
2017-10-15T05:16:16.695Z,71.10
2017-10-15T05:18:44.618Z,71.40
2017-10-15T05:21:12.367Z,71.20
2017-10-15T05:23:40.136Z,71.10
2017-10-15T05:26:07.931Z,70.90
2017-10-15T05:28:35.963Z,70.90
2017-10-15T05:31:03.825Z,70.60
2017-10-15T05:33:32.332Z,71.40
2017-10-15T05:36:00.188Z,71.40
2017-10-15T05:38:27.932Z,71.60
2017-10-15T05:40:55.713Z,71.40
2017-10-15T05:43:23.541Z,71.00
2017-10-15T05:45:51.355Z,70.90
2017-10-15T05:48:20.041Z,70.40
2017-10-15T05:50:48.644Z,70.40
2017-10-15T05:53:16.580Z,70.30
2017-10-15T05:55:44.397Z,70.00
2017-10-15T05:58:12.201Z,69.70
2017-10-15T06:00:40.024Z,69.60
2017-10-15T06:03:07.837Z,69.30
2017-10-15T06:05:35.584Z,69.30
2017-10-15T06:08:03.382Z,69.50
2017-10-15T06:10:31.155Z,69.00
2017-10-15T06:12:59.684Z,69.60
2017-10-15T06:15:27.543Z,69.10
2017-10-15T06:17:55.268Z,69.30
2017-10-15T06:20:23.027Z,69.40
2017-10-15T06:22:50.896Z,69.60
2017-10-15T06:25:18.658Z,70.20
2017-10-15T06:27:46.421Z,70.20
2017-10-15T06:30:14.242Z,70.00
2017-10-15T06:32:42.127Z,69.80
2017-10-15T06:35:09.856Z,69.30
2017-10-15T06:37:37.689Z,69.20
2017-10-15T06:40:05.469Z,68.90
2017-10-15T06:42:33.278Z,69.10
2017-10-15T06:45:01.103Z,69.00
2017-10-15T06:47:28.851Z,69.10
2017-10-15T06:49:56.652Z,68.80
2017-10-15T06:52:25.330Z,70.00
2017-10-15T06:54:53.093Z,69.00
2017-10-15T06:57:20.952Z,68.40
2017-10-15T06:59:48.765Z,68.50
2017-10-15T07:02:16.605Z,68.20
2017-10-15T07:04:44.427Z,68.50
2017-10-15T07:07:12.279Z,68.60
2017-10-15T07:09:40.082Z,68.60
2017-10-15T07:12:07.922Z,68.70
2017-10-15T07:14:35.759Z,68.60
2017-10-15T07:17:03.597Z,68.60
2017-10-15T07:19:31.508Z,68.60
2017-10-15T07:21:59.371Z,68.80
2017-10-15T07:24:27.200Z,69.10
2017-10-15T07:26:55.039Z,69.90
2017-10-15T07:29:22.945Z,70.50
2017-10-15T07:31:50.812Z,70.50
2017-10-15T07:34:19.470Z,71.00
2017-10-15T07:36:47.433Z,70.50
2017-10-15T07:39:15.234Z,70.50
2017-10-15T07:41:43.038Z,70.10
2017-10-15T07:44:10.831Z,69.90
2017-10-15T07:46:39.152Z,69.30
2017-10-15T07:49:07.104Z,70.10
2017-10-15T07:51:34.890Z,69.60
2017-10-15T07:54:02.687Z,69.30
2017-10-15T07:56:30.540Z,68.90
2017-10-15T07:58:58.332Z,68.90
2017-10-15T08:01:26.084Z,68.00
2017-10-15T08:03:53.873Z,67.50
2017-10-15T08:06:21.743Z,67.70
2017-10-15T08:08:49.548Z,66.60
2017-10-15T08:11:17.330Z,67.70
2017-10-15T08:13:45.129Z,67.40
2017-10-15T08:16:12.894Z,67.00
2017-10-15T08:18:40.626Z,66.80
2017-10-15T08:21:08.569Z,66.90
2017-10-15T08:23:36.412Z,66.80
2017-10-15T08:26:04.257Z,66.60
2017-10-15T08:28:32.064Z,66.80
2017-10-15T08:30:59.868Z,66.90
2017-10-15T08:33:27.615Z,66.80
2017-10-15T08:35:55.992Z,67.10
2017-10-15T08:38:23.732Z,66.50
2017-10-15T08:40:51.460Z,67.20
2017-10-15T08:43:19.270Z,67.20
2017-10-15T08:45:47.074Z,67.60
2017-10-15T08:48:14.848Z,67.10
2017-10-15T08:50:42.678Z,71.20
2017-10-15T08:53:10.466Z,68.30
2017-10-15T08:55:38.244Z,68.70
2017-10-15T08:58:06.087Z,67.80
2017-10-15T09:00:33.870Z,71.00
2017-10-15T09:03:01.692Z,67.90
2017-10-15T09:05:29.490Z,68.50
2017-10-15T09:07:57.312Z,68.70
2017-10-15T09:10:25.136Z,68.60
2017-10-15T09:12:52.876Z,68.50
2017-10-15T09:15:20.718Z,69.20
2017-10-15T09:17:48.486Z,69.10
2017-10-15T09:20:17.155Z,70.30
2017-10-15T09:22:44.975Z,69.70
2017-10-15T09:25:12.767Z,68.30
2017-10-15T09:27:40.592Z,72.70
2017-10-15T09:30:08.376Z,68.70
2017-10-15T09:32:36.201Z,68.80
2017-10-15T09:35:04.104Z,68.30
2017-10-15T09:37:35.352Z,67.10
